Latest Weather Observations for Westmere

IDV60801

Issued at 7:32 pm EST Sunday 20 August 2017 (issued every 30 minutes, with the page automatically refreshed every 10 minutes)

About weather observations | Map of weather stations | Latest weather observations for VIC | Other Formats
Station Details ID: 089112 Name: WESTMERE Lat: -37.71 Lon: 142.94 Height: 226.0 m
Data from the previous 72 hours. | See also: Recent months at Westmere
Date/Time
EST
Temp
°C
App
Temp
°C
Dew
Point
°C
Rel
Hum
%
Delta-T
°C
Wind Press
QNH
hPa
Press
MSL
hPa
Rain since
9am
mm
Dir  Spd
km/h
Gust
km/h
Spd
kts
Gust
kts
20/07:30pm 4.6 1.8 3.4 92 0.5 NNE 7 7 4 4 1018.8 1019.1 0.0
20/07:00pm 5.5 3.0 3.5 87 0.8 NE 6 9 3 5 1018.8 1019.1 0.0
20/06:30pm 6.0 3.4 4.0 87 0.9 N 7 9 4 5 1019.1 1019.4 0.0
20/06:00pm 6.1 3.7 4.1 87 0.9 NNW 6 6 3 3 1019.3 1019.6 0.0
20/05:30pm 6.9 4.4 3.7 80 1.4 NNW 6 7 3 4 1019.4 1019.7 0.0
20/05:00pm 7.5 4.7 3.0 73 1.9 NNW 7 9 4 5 1019.5 1019.8 0.0
20/04:30pm 8.2 3.3 1.8 64 2.7 NNW 17 24 9 13 1019.8 1020.1 0.0
20/04:00pm 9.1 5.9 3.1 66 2.6 N 9 15 5 8 1019.9 1020.3 0.0
20/03:30pm 9.4 5.7 2.3 61 3.0 N 11 15 6 8 1020.0 1020.4 0.0
20/03:00pm 9.7 5.1 1.4 56 3.5 N 15 20 8 11 1020.0 1020.4 0.0
20/02:30pm 10.1 5.8 1.2 54 3.7 NE 13 17 7 9 1020.2 1020.6 0.0
20/02:00pm 9.9 6.4 1.0 54 3.7 NNE 9 13 5 7 1020.9 1021.3 0.0
20/01:30pm 9.8 6.5 2.6 61 3.1 NNE 9 17 5 9 1021.5 1021.9 0.0
20/01:00pm 9.5 6.2 2.4 61 3.0 NNE 9 13 5 7 1022.6 1022.9 0.0
20/12:30pm 9.6 6.4 3.1 64 2.8 NNE 9 17 5 9 1023.5 1023.8 0.0
20/12:00pm 8.6 4.9 2.2 64 2.7 N 11 17 6 9 1024.5 1024.9 0.0
20/11:30am 8.0 4.2 1.8 65 2.6 NNE 11 15 6 8 1024.9 1025.3 0.0
20/11:00am 8.2 4.5 2.2 66 2.5 NNE 11 17 6 9 1025.3 1025.7 0.0
20/10:30am 7.6 3.5 2.3 69 2.2 N 13 17 7 9 1025.8 1026.2 0.0
20/10:00am 7.2 4.5 3.6 78 1.5 N 7 13 4 7 1026.1 1026.5 0.0
20/09:30am 4.8 1.9 2.7 86 0.9 N 7 11 4 6 1026.4 1026.7 0.0
20/09:00am 2.9 0.8 2.0 94 0.4 NNE 2 4 1 2 1026.6 1026.9 0.4
20/08:30am 0.6 -2.1 0.2 97 0.1 N 4 4 2 2 1026.9 1027.2 0.4
20/08:00am -0.7 -3.6 -0.8 99 0.0 N 4 4 2 2 1027.0 1027.3 0.2
20/07:30am -2.2 -5.3 -2.5 98 0.0 N 4 4 2 2 1026.9 1027.2 0.2
20/07:00am -3.1 -6.3 -3.5 97 0.0 N 4 6 2 3 1026.8 1027.1 0.2
20/06:30am -1.7 -5.1 -2.0 98 0.0 N 6 7 3 4 1026.7 1027.0 0.2
20/06:00am -3.2 -5.6 -3.5 98 0.0 CALM 0 6 0 3 1026.7 1027.0 0.2
20/05:30am -3.3 -5.8 -3.6 98 0.0 CALM 0 0 0 0 1026.5 1026.8 0.2
20/05:00am -2.8 -5.2 -3.1 98 0.0 CALM 0 0 0 0 1026.6 1026.9 0.2
20/04:30am -1.6 -4.6 -1.7 99 0.0 NNW 4 6 2 3 1026.7 1027.0 0.2
20/04:00am -2.7 -5.1 -3.0 98 0.0 CALM 0 0 0 0 1026.8 1027.1 0.2
20/03:30am -2.5 -4.9 -2.8 98 0.0 CALM 0 0 0 0 1026.7 1027.0 0.2
20/03:00am -2.0 -4.7 -2.3 98 0.0 NNW 2 4 1 2 1027.0 1027.3 0.2
20/02:30am -2.0 -4.3 -2.3 98 0.0 CALM 0 0 0 0 1027.0 1027.3 0.2
20/02:00am -1.4 -4.9 -1.7 98 0.0 NNW 7 9 4 5 1027.0 1027.3 0.2
20/01:30am -1.5 -3.7 -1.8 98 0.0 CALM 0 0 0 0 1027.2 1027.5 0.2
20/01:00am -1.7 -4.3 -2.0 98 0.0 NNW 2 4 1 2 1027.0 1027.3 0.2
20/12:30am -1.1 -4.4 -1.4 98 0.1 NNW 6 9 3 5 1027.3 1027.6 0.2
20/12:00am -0.9 -4.4 -1.2 98 0.1 NNW 7 11 4 6 1027.5 1027.9 0.2
 
Date/Time
EST
Temp
°C
App
Temp
°C
Dew
Point
°C
Rel
Hum
%
Delta-T
°C
Wind Press
QNH
hPa
Press
MSL
hPa
Rain since
9am
mm
Dir  Spd
km/h
Gust
km/h
Spd
kts
Gust
kts
19/11:30pm -0.3 -3.5 -0.6 98 0.1 N 6 7 3 4 1027.6 1028.0 0.2
19/11:00pm -1.0 -4.5 -1.4 97 0.1 NW 7 9 4 5 1028.1 1028.5 0.2
19/10:30pm -0.1 -2.5 -0.5 97 0.1 WNW 2 9 1 5 1028.6 1029.0 0.2
19/10:00pm -0.1 -2.6 -0.8 95 0.2 WNW 2 4 1 2 1028.3 1028.7 0.2
19/09:30pm 0.8 -2.9 0.1 95 0.3 WNW 9 9 5 5 1028.5 1028.9 0.2
19/09:00pm 0.8 -2.5 -0.1 94 0.3 NW 7 7 4 4 1028.1 1028.5 0.2
19/08:30pm 2.7 1.0 1.8 94 0.4 CALM 0 0 0 0 1027.7 1028.1 0.2
19/08:00pm 1.6 -0.7 0.3 91 0.5 SSW 2 6 1 3 1027.4 1027.8 0.2
19/07:30pm 2.5 -0.2 0.2 85 0.9 SSW 4 4 2 2 1027.4 1027.8 0.2
19/07:00pm 3.8 1.0 1.8 87 0.8 SW 6 6 3 3 1027.6 1028.0 0.2
19/06:30pm 4.2 0.8 1.7 84 1.0 SW 9 11 5 6 1027.5 1027.9 0.2
19/06:00pm 5.3 2.0 2.3 81 1.2 SSW 9 13 5 7 1027.5 1027.9 0.2
19/05:30pm 7.1 3.2 3.2 76 1.7 SSW 13 15 7 8 1027.4 1027.8 0.2
19/05:00pm 8.0 4.2 3.8 75 1.8 SSW 13 19 7 10 1027.4 1027.8 0.2
19/04:30pm 8.6 2.6 3.6 71 2.2 SW 24 32 13 17 1027.3 1027.6 0.2
19/04:00pm 9.7 4.8 3.9 67 2.6 SW 19 24 10 13 1027.1 1027.4 0.2
19/03:30pm 10.6 7.4 4.9 68 2.6 WSW 11 22 6 12 1026.9 1027.2 0.2
19/03:00pm 9.6 5.2 4.6 71 2.2 WSW 17 22 9 12 1027.0 1027.3 0.2
19/02:30pm 9.4 6.2 5.0 74 2.0 SW 11 17 6 9 1027.1 1027.4 0.2
19/02:00pm 8.7 4.8 5.4 80 1.5 SW 15 17 8 9 1027.2 1027.5 0.2
19/01:30pm 8.5 4.3 5.6 82 1.3 SW 17 26 9 14 1027.2 1027.5 0.2
19/01:00pm 9.8 6.0 6.0 77 1.8 SSW 15 20 8 11 1027.2 1027.5 0.2
19/12:30pm 8.0 4.9 5.5 84 1.1 SW 11 17 6 9 1027.6 1028.0 0.2
19/12:00pm 9.2 6.1 5.6 78 1.6 SW 11 20 6 11 1027.7 1028.1 0.0
19/11:30am 8.5 5.2 4.5 76 1.8 SSW 11 19 6 10 1027.8 1028.2 0.0
19/11:00am 8.7 5.2 5.3 79 1.5 SSW 13 20 7 11 1027.7 1028.1 0.0
19/10:30am 8.1 5.4 5.6 84 1.1 SW 9 13 5 7 1027.8 1028.2 0.0
19/10:00am 7.0 3.8 5.2 88 0.8 SW 11 15 6 8 1027.6 1028.0 0.0
19/09:30am 6.6 2.7 5.2 91 0.6 SSW 15 24 8 13 1027.5 1027.9 0.0
19/09:00am 5.5 3.0 4.9 96 0.3 SSW 7 9 4 5 1027.0 1027.3 11.2
19/08:30am 4.0 0.9 3.7 98 0.1 SW 9 13 5 7 1026.7 1027.0 11.2
19/08:00am 3.2 -0.8 3.1 99 0.0 SW 13 17 7 9 1026.2 1026.6 11.2
19/07:30am 1.1 -2.1 1.0 99 0.0 S 7 11 4 6 1025.9 1026.3 11.2
19/07:00am 1.7 -1.4 1.6 99 0.0 SW 7 9 4 5 1025.3 1025.7 11.2
19/06:30am 2.3 -1.0 2.2 99 0.0 WSW 9 11 5 6 1024.8 1025.2 11.0
19/06:00am 2.2 -0.8 2.1 99 0.0 W 7 11 4 6 1024.4 1024.8 11.0
19/05:30am 2.2 -0.8 1.9 98 0.1 W 7 11 4 6 1024.1 1024.5 11.0
19/05:00am 2.3 -0.5 1.9 97 0.2 WSW 6 7 3 4 1023.8 1024.2 11.0
19/04:30am 3.5 -0.2 2.5 93 0.4 WSW 11 17 6 9 1023.3 1023.6 11.0
19/04:00am 3.5 -0.5 3.1 97 0.2 SW 13 20 7 11 1023.5 1023.8 10.8
19/03:30am 3.6 -1.0 3.5 99 0.0 SW 17 30 9 16 1023.2 1023.5 10.8
19/03:00am 2.4 0.0 2.3 99 0.0 WSW 4 6 2 3 1022.7 1023.0 10.2
19/02:30am 2.9 0.0 2.8 99 0.0 WSW 7 9 4 5 1022.8 1023.1 10.2
19/02:00am 2.6 -0.3 2.5 99 0.0 W 7 9 4 5 1022.7 1023.0 10.2
19/01:30am 1.7 -1.8 1.4 98 0.1 WNW 9 11 5 6 1022.6 1022.9 10.2
19/01:00am 3.2 0.5 2.9 98 0.1 WSW 6 9 3 5 1022.4 1022.7 10.2
19/12:30am 3.5 0.4 3.4 99 0.0 WSW 9 13 5 7 1022.3 1022.6 10.2
19/12:00am 3.6 0.5 3.5 99 0.0 W 9 11 5 6 1022.0 1022.3 10.2
 
Date/Time
EST
Temp
°C
App
Temp
°C
Dew
Point
°C
Rel
Hum
%
Delta-T
°C
Wind Press
QNH
hPa
Press
MSL
hPa
Rain since
9am
mm
Dir  Spd
km/h
Gust
km/h
Spd
kts
Gust
kts
18/11:30pm 4.0 0.6 3.9 99 0.0 W 11 15 6 8 1021.9 1022.2 10.2
18/11:00pm 4.1 0.3 4.0 99 0.0 W 13 17 7 9 1021.9 1022.2 10.2
18/10:30pm 4.1 1.1 4.0 99 0.0 WNW 9 13 5 7 1021.5 1021.9 10.2
18/10:00pm 4.4 1.4 4.1 98 0.1 W 9 11 5 6 1021.3 1021.7 10.2
18/09:30pm 4.9 1.6 4.5 97 0.2 W 11 15 6 8 1021.1 1021.5 10.2
18/09:00pm 4.9 1.6 4.5 97 0.2 W 11 17 6 9 1020.8 1021.2 9.8
18/08:30pm 5.3 2.1 4.9 97 0.2 W 11 19 6 10 1020.5 1020.9 9.8
18/08:00pm 5.5 1.4 4.6 94 0.4 W 15 20 8 11 1020.0 1020.4 9.8
18/07:30pm 6.3 1.6 5.1 92 0.5 WSW 19 28 10 15 1020.1 1020.5 9.6
18/07:00pm 6.0 1.0 4.8 92 0.5 WSW 20 37 11 20 1019.2 1019.5 9.6
18/06:47pm 6.4 0.0 5.2 92 0.5 WSW 28 43 15 23 1019.3 1019.6 8.8
18/06:30pm 6.6 2.6 5.1 90 0.7 WSW 15 22 8 12 1018.7 1019.0 8.0
18/06:00pm 6.3 2.6 4.3 87 0.9 WSW 13 22 7 12 1018.2 1018.5 8.0
18/05:30pm 6.6 0.0 4.1 84 1.1 SW 28 39 15 21 1017.8 1018.1 7.8
18/05:00pm 8.0 3.3 5.3 83 1.2 WSW 19 28 10 15 1016.8 1017.2 7.8
18/04:30pm 7.2 3.1 6.0 92 0.5 SW 17 24 9 13 1016.5 1016.9 7.8
18/04:00pm 8.7 4.1 5.4 80 1.5 WSW 19 30 10 16 1016.0 1016.3 7.4
18/03:30pm 8.1 3.7 5.0 81 1.4 WSW 17 20 9 11 1015.6 1015.9 7.4
18/03:00pm 6.9 1.5 4.4 84 1.1 WSW 22 33 12 18 1015.0 1015.3 7.4
18/02:40pm 5.5 -1.5 4.3 92 0.5 WSW 30 56 16 30 1015.3 1015.6 7.2
18/02:36pm 5.8 -0.1 4.1 89 0.7 WSW 24 56 13 30 1015.5 1015.8 7.0
18/02:30pm 7.6 2.9 5.1 84 1.1 WSW 19 26 10 14 1014.8 1015.1 5.6
18/02:03pm 6.5 -0.8 4.3 86 1.0 WSW 32 50 17 27 1014.6 1014.9 5.6
18/02:00pm 6.7 -1.2 4.5 86 1.0 WSW 35 50 19 27 1014.8 1015.1 5.4
18/01:31pm 6.8 0.3 4.6 86 1.0 WSW 28 46 15 25 1014.0 1014.3 4.8
18/01:30pm 7.0 0.9 4.7 85 1.0 WSW 26 46 14 25 1013.9 1014.2 4.8
18/01:00pm 9.0 3.8 5.7 80 1.5 WSW 22 37 12 20 1013.8 1014.1 4.2
18/12:30pm 7.5 2.4 6.1 91 0.6 W 22 32 12 17 1013.5 1013.8 4.2
18/12:00pm 7.4 2.4 4.7 83 1.2 W 20 32 11 17 1013.4 1013.7 4.0
18/11:33am 7.0 0.6 5.0 87 0.9 W 28 50 15 27 1013.4 1013.7 3.8
18/11:30am 7.2 1.2 5.5 89 0.8 W 26 41 14 22 1013.4 1013.7 3.6
18/11:00am 6.1 -0.5 4.1 87 0.9 WSW 28 43 15 23 1013.1 1013.4 3.4
18/10:30am 7.0 2.9 6.3 95 0.3 W 17 28 9 15 1012.8 1013.1 2.2
18/10:00am 6.7 0.4 5.5 92 0.5 W 28 39 15 21 1012.0 1012.3 1.2
18/09:30am 7.0 1.1 5.8 92 0.5 W 26 44 14 24 1011.0 1011.3 0.4
18/09:00am 7.0 0.6 5.0 87 0.9 W 28 44 15 24 1010.3 1010.6 4.4
18/08:41am 6.8 -0.1 4.5 85 1.0 WNW 30 50 16 27 1009.9 1010.2 4.4
18/08:30am 6.5 1.1 4.7 88 0.8 WNW 22 33 12 18 1009.9 1010.2 4.4
18/08:00am 5.8 0.7 4.3 90 0.7 WNW 20 30 11 16 1009.6 1009.9 4.4
18/07:30am 5.3 0.2 4.3 93 0.4 WNW 20 28 11 15 1009.1 1009.4 4.2
18/07:00am 5.1 1.0 4.4 95 0.3 WNW 15 22 8 12 1008.6 1008.8 4.0
18/06:30am 5.6 -0.5 4.6 93 0.4 WNW 26 37 14 20 1008.5 1008.7 3.8
18/06:00am 5.6 -0.8 3.3 85 1.0 WNW 26 43 14 23 1007.5 1007.8 3.6
18/05:30am 5.9 -0.7 4.2 89 0.7 WNW 28 43 15 23 1007.1 1007.4 3.6
18/05:00am 5.8 0.0 4.6 92 0.5 WNW 24 39 13 21 1006.7 1007.0 3.4
18/04:42am 6.0 -0.9 4.5 90 0.7 WNW 30 50 16 27 1006.6 1006.9 3.2
18/04:30am 6.0 0.2 4.6 91 0.6 WNW 24 39 13 21 1006.5 1006.8 3.2
18/04:00am 6.0 0.2 4.2 88 0.8 WNW 24 37 13 20 1006.0 1006.3 3.0
18/03:30am 5.5 -0.5 3.2 85 1.0 WNW 24 39 13 21 1005.3 1005.6 2.8
18/03:00am 5.7 -1.0 3.9 88 0.8 WNW 28 39 15 21 1005.0 1005.2 2.8
18/02:30am 5.6 0.1 3.9 89 0.7 WNW 22 33 12 18 1005.1 1005.3 2.8
18/02:00am 5.7 -1.8 3.5 86 0.9 WNW 32 46 17 25 1005.0 1005.2 2.6
18/01:54am 5.8 -0.9 3.6 86 0.9 WNW 28 46 15 25 1004.8 1005.0 2.6
18/01:30am 5.8 -0.5 3.6 86 0.9 WNW 26 39 14 21 1004.8 1005.0 2.6
18/01:00am 6.2 -0.8 4.0 86 1.0 NW 30 41 16 22 1004.8 1005.0 2.6
18/12:30am 6.0 0.1 3.8 86 0.9 WNW 24 35 13 19 1004.7 1004.9 2.6
18/12:00am 5.9 0.1 4.4 90 0.7 WNW 24 35 13 19 1004.5 1004.7 2.6
 
Date/Time
EST
Temp
°C
App
Temp
°C
Dew
Point
°C
Rel
Hum
%
Delta-T
°C
Wind Press
QNH
hPa
Press
MSL
hPa
Rain since
9am
mm
Dir  Spd
km/h
Gust
km/h
Spd
kts
Gust
kts
17/11:30pm 5.5 0.6 4.3 92 0.5 WNW 19 26 10 14 1004.4 1004.6 2.6
17/11:00pm 6.3 -0.2 4.6 89 0.7 WNW 28 50 15 27 1004.6 1004.8 2.6
17/10:30pm 5.0 1.2 4.1 94 0.4 NNW 13 19 7 10 1004.4 1004.6 2.4
17/10:00pm 5.1 1.0 4.2 94 0.4 NNW 15 19 8 10 1004.6 1004.8 2.4
17/09:30pm 6.0 0.7 5.0 93 0.4 NW 22 32 12 17 1004.1 1004.3 2.4
17/09:00pm 5.3 1.6 4.6 95 0.3 NW 13 17 7 9 1004.4 1004.6 2.4
17/08:30pm 6.1 1.7 4.7 91 0.6 WNW 17 22 9 12 1004.4 1004.6 2.4
17/08:00pm 6.8 0.8 5.3 90 0.7 WNW 26 37 14 20 1004.1 1004.3 2.2

Other Formats:

Comma delimited format used in spreadsheet applications
http://www.bom.gov.au/fwo/IDV60801/IDV60801.95840.axf

JavaScript Object Notation format (JSON) in row-major order
http://www.bom.gov.au/fwo/IDV60801/IDV60801.95840.json